sensor_id;sensor_type;location;lat;lon;timestamp;pressure;altitude;pressure_sealevel;temperature
48003;BMP280;33768;48.578;11.574;2024-03-22T00:00:28;97208.00;;;6.17
48003;BMP280;33768;48.578;11.574;2024-03-22T00:03:32;97207.81;;;6.21
48003;BMP280;33768;48.578;11.574;2024-03-22T00:06:36;97213.50;;;6.23
48003;BMP280;33768;48.578;11.574;2024-03-22T00:09:40;97211.38;;;6.12
48003;BMP280;33768;48.578;11.574;2024-03-22T00:12:45;97214.81;;;6.07
48003;BMP280;33768;48.578;11.574;2024-03-22T00:15:49;97213.59;;;6.08
48003;BMP280;33768;48.578;11.574;2024-03-22T00:18:53;97213.59;;;6.08
48003;BMP280;33768;48.578;11.574;2024-03-22T00:21:57;97217.53;;;6.07
48003;BMP280;33768;48.578;11.574;2024-03-22T00:25:01;97203.69;;;6.05
48003;BMP280;33768;48.578;11.574;2024-03-22T00:28:05;97206.69;;;6.07
48003;BMP280;33768;48.578;11.574;2024-03-22T00:31:09;97188.69;;;6.10
48003;BMP280;33768;48.578;11.574;2024-03-22T00:34:15;97187.50;;;6.11
48003;BMP280;33768;48.578;11.574;2024-03-22T00:37:20;97183.06;;;6.13
48003;BMP280;33768;48.578;11.574;2024-03-22T00:40:24;97184.56;;;6.14
48003;BMP280;33768;48.578;11.574;2024-03-22T00:43:28;97180.09;;;6.11
48003;BMP280;33768;48.578;11.574;2024-03-22T00:46:32;97174.56;;;6.00
48003;BMP280;33768;48.578;11.574;2024-03-22T00:49:37;97180.41;;;5.93
48003;BMP280;33768;48.578;11.574;2024-03-22T00:52:41;97164.88;;;5.94
48003;BMP280;33768;48.578;11.574;2024-03-22T00:55:46;97162.66;;;5.93
48003;BMP280;33768;48.578;11.574;2024-03-22T00:58:55;97159.69;;;5.91
48003;BMP280;33768;48.578;11.574;2024-03-22T01:01:59;97152.47;;;5.82
48003;BMP280;33768;48.578;11.574;2024-03-22T01:05:04;97153.59;;;5.76
48003;BMP280;33768;48.578;11.574;2024-03-22T01:08:08;97154.28;;;5.71
48003;BMP280;33768;48.578;11.574;2024-03-22T01:11:12;97135.03;;;5.69
48003;BMP280;33768;48.578;11.574;2024-03-22T01:14:16;97133.53;;;5.68
48003;BMP280;33768;48.578;11.574;2024-03-22T01:17:21;97131.97;;;5.61
48003;BMP280;33768;48.578;11.574;2024-03-22T01:20:25;97123.41;;;5.63
48003;BMP280;33768;48.578;11.574;2024-03-22T01:23:29;97122.66;;;5.62
48003;BMP280;33768;48.578;11.574;2024-03-22T01:26:33;97124.69;;;5.67
48003;BMP280;33768;48.578;11.574;2024-03-22T01:29:37;97122.53;;;5.71
48003;BMP280;33768;48.578;11.574;2024-03-22T01:32:41;97114.19;;;5.75
48003;BMP280;33768;48.578;11.574;2024-03-22T01:35:45;97110.25;;;5.76
48003;BMP280;33768;48.578;11.574;2024-03-22T01:38:49;97116.91;;;5.75
48003;BMP280;33768;48.578;11.574;2024-03-22T01:41:53;97120.63;;;5.77
48003;BMP280;33768;48.578;11.574;2024-03-22T01:44:58;97113.72;;;5.76
48003;BMP280;33768;48.578;11.574;2024-03-22T01:48:02;97116.41;;;5.76
48003;BMP280;33768;48.578;11.574;2024-03-22T01:51:09;97133.63;;;5.73
48003;BMP280;33768;48.578;11.574;2024-03-22T01:54:15;97118.31;;;5.70
48003;BMP280;33768;48.578;11.574;2024-03-22T01:57:20;97114.84;;;5.70
48003;BMP280;33768;48.578;11.574;2024-03-22T02:00:24;97109.06;;;5.57
48003;BMP280;33768;48.578;11.574;2024-03-22T02:03:28;97111.69;;;5.52
48003;BMP280;33768;48.578;11.574;2024-03-22T02:06:32;97091.47;;;5.47
48003;BMP280;33768;48.578;11.574;2024-03-22T02:09:36;97106.88;;;5.41
48003;BMP280;33768;48.578;11.574;2024-03-22T02:12:41;97104.41;;;5.38
48003;BMP280;33768;48.578;11.574;2024-03-22T02:15:45;97099.44;;;5.36
48003;BMP280;33768;48.578;11.574;2024-03-22T02:18:51;97093.78;;;5.34
48003;BMP280;33768;48.578;11.574;2024-03-22T02:21:55;97098.56;;;5.25
48003;BMP280;33768;48.578;11.574;2024-03-22T02:24:59;97099.47;;;5.17
48003;BMP280;33768;48.578;11.574;2024-03-22T02:28:03;97100.38;;;5.14
48003;BMP280;33768;48.578;11.574;2024-03-22T02:31:07;97088.63;;;5.17
48003;BMP280;33768;48.578;11.574;2024-03-22T02:34:12;97087.81;;;5.11
48003;BMP280;33768;48.578;11.574;2024-03-22T02:37:16;97090.25;;;5.09
48003;BMP280;33768;48.578;11.574;2024-03-22T02:40:20;97075.50;;;5.10
48003;BMP280;33768;48.578;11.574;2024-03-22T02:43:25;97071.28;;;5.09
48003;BMP280;33768;48.578;11.574;2024-03-22T02:46:30;97075.03;;;5.11
48003;BMP280;33768;48.578;11.574;2024-03-22T02:49:34;97071.56;;;5.11
48003;BMP280;33768;48.578;11.574;2024-03-22T02:52:38;97067.66;;;5.12
48003;BMP280;33768;48.578;11.574;2024-03-22T02:55:42;97064.69;;;5.10
48003;BMP280;33768;48.578;11.574;2024-03-22T03:03:32;97058.72;;;5.06
48003;BMP280;33768;48.578;11.574;2024-03-22T03:06:36;97060.69;;;5.05
48003;BMP280;33768;48.578;11.574;2024-03-22T03:09:40;97062.88;;;5.01
48003;BMP280;33768;48.578;11.574;2024-03-22T03:12:44;97052.72;;;4.97
48003;BMP280;33768;48.578;11.574;2024-03-22T03:15:48;97047.50;;;4.93
48003;BMP280;33768;48.578;11.574;2024-03-22T03:18:52;97043.03;;;4.90
48003;BMP280;33768;48.578;11.574;2024-03-22T03:21:57;97037.91;;;4.92
48003;BMP280;33768;48.578;11.574;2024-03-22T03:25:03;97046.28;;;4.94
48003;BMP280;33768;48.578;11.574;2024-03-22T03:28:08;97037.22;;;4.97
48003;BMP280;33768;48.578;11.574;2024-03-22T03:31:12;97034.25;;;4.95
48003;BMP280;33768;48.578;11.574;2024-03-22T03:34:16;97042.34;;;4.95
48003;BMP280;33768;48.578;11.574;2024-03-22T03:37:21;97028.44;;;4.82
48003;BMP280;33768;48.578;11.574;2024-03-22T03:40:25;97039.13;;;4.71
48003;BMP280;33768;48.578;11.574;2024-03-22T03:43:30;97027.06;;;4.72
48003;BMP280;33768;48.578;11.574;2024-03-22T03:46:34;97036.66;;;4.73
48003;BMP280;33768;48.578;11.574;2024-03-22T03:49:39;97021.66;;;4.72
48003;BMP280;33768;48.578;11.574;2024-03-22T03:52:43;97024.91;;;4.76
48003;BMP280;33768;48.578;11.574;2024-03-22T03:55:47;97017.47;;;4.71
48003;BMP280;33768;48.578;11.574;2024-03-22T03:58:51;97023.34;;;4.70
48003;BMP280;33768;48.578;11.574;2024-03-22T04:01:57;97020.38;;;4.68
48003;BMP280;33768;48.578;11.574;2024-03-22T04:05:01;97028.69;;;4.65
48003;BMP280;33768;48.578;11.574;2024-03-22T04:08:05;97021.78;;;4.64
48003;BMP280;33768;48.578;11.574;2024-03-22T04:11:10;97012.66;;;4.61
48003;BMP280;33768;48.578;11.574;2024-03-22T04:14:15;97013.41;;;4.62
48003;BMP280;33768;48.578;11.574;2024-03-22T04:17:19;97016.38;;;4.64
48003;BMP280;33768;48.578;11.574;2024-03-22T04:20:23;97011.50;;;4.67
48003;BMP280;33768;48.578;11.574;2024-03-22T04:23:30;97014.50;;;4.69
48003;BMP280;33768;48.578;11.574;2024-03-22T04:26:34;97003.13;;;4.66
48003;BMP280;33768;48.578;11.574;2024-03-22T04:29:39;96997.56;;;4.55
48003;BMP280;33768;48.578;11.574;2024-03-22T04:32:46;96993.78;;;4.47
48003;BMP280;33768;48.578;11.574;2024-03-22T04:35:50;96999.88;;;4.42
48003;BMP280;33768;48.578;11.574;2024-03-22T04:38:54;97002.56;;;4.42
48003;BMP280;33768;48.578;11.574;2024-03-22T04:41:59;96994.06;;;4.49
48003;BMP280;33768;48.578;11.574;2024-03-22T04:45:03;96996.34;;;4.56
48003;BMP280;33768;48.578;11.574;2024-03-22T04:48:08;96995.22;;;4.62
48003;BMP280;33768;48.578;11.574;2024-03-22T04:51:12;96994.81;;;4.69
48003;BMP280;33768;48.578;11.574;2024-03-22T04:54:17;97001.50;;;4.73
48003;BMP280;33768;48.578;11.574;2024-03-22T04:57:21;97006.72;;;4.77
48003;BMP280;33768;48.578;11.574;2024-03-22T05:00:25;97010.38;;;4.74
48003;BMP280;33768;48.578;11.574;2024-03-22T05:03:31;97005.88;;;4.71
48003;BMP280;33768;48.578;11.574;2024-03-22T05:06:36;96996.97;;;4.65
48003;BMP280;33768;48.578;11.574;2024-03-22T05:09:40;96999.41;;;4.63
48003;BMP280;33768;48.578;11.574;2024-03-22T05:12:45;96996.69;;;4.63
48003;BMP280;33768;48.578;11.574;2024-03-22T05:15:49;96995.34;;;4.53
48003;BMP280;33768;48.578;11.574;2024-03-22T05:18:53;96997.03;;;4.51
48003;BMP280;33768;48.578;11.574;2024-03-22T05:21:57;96997.31;;;4.53
48003;BMP280;33768;48.578;11.574;2024-03-22T05:25:01;96999.00;;;4.50
48003;BMP280;33768;48.578;11.574;2024-03-22T05:28:05;97000.94;;;4.50
48003;BMP280;33768;48.578;11.574;2024-03-22T05:31:09;97012.56;;;4.56
48003;BMP280;33768;48.578;11.574;2024-03-22T05:34:14;97005.22;;;4.56
48003;BMP280;33768;48.578;11.574;2024-03-22T05:37:19;97002.53;;;4.56
48003;BMP280;33768;48.578;11.574;2024-03-22T05:40:24;97007.25;;;4.61
48003;BMP280;33768;48.578;11.574;2024-03-22T05:43:29;96991.78;;;4.62
48003;BMP280;33768;48.578;11.574;2024-03-22T05:46:34;96994.72;;;4.64
48003;BMP280;33768;48.578;11.574;2024-03-22T05:49:38;96992.31;;;4.66
48003;BMP280;33768;48.578;11.574;2024-03-22T05:52:42;96990.28;;;4.61
48003;BMP280;33768;48.578;11.574;2024-03-22T05:55:47;96988.19;;;4.70
48003;BMP280;33768;48.578;11.574;2024-03-22T05:58:51;96991.63;;;4.90
48003;BMP280;33768;48.578;11.574;2024-03-22T06:01:55;96982.09;;;5.14
48003;BMP280;33768;48.578;11.574;2024-03-22T06:09:28;96969.16;;;5.54
48003;BMP280;33768;48.578;11.574;2024-03-22T06:17:45;96957.44;;;6.70
48003;BMP280;33768;48.578;11.574;2024-03-22T06:20:50;96947.38;;;6.92
48003;BMP280;33768;48.578;11.574;2024-03-22T06:23:54;96963.31;;;7.32
48003;BMP280;33768;48.578;11.574;2024-03-22T06:26:58;96952.91;;;7.19
48003;BMP280;33768;48.578;11.574;2024-03-22T06:30:02;96965.47;;;7.06
48003;BMP280;33768;48.578;11.574;2024-03-22T06:33:07;96973.31;;;6.93
48003;BMP280;33768;48.578;11.574;2024-03-22T06:36:12;96963.94;;;7.00
48003;BMP280;33768;48.578;11.574;2024-03-22T06:39:16;96964.56;;;7.36
48003;BMP280;33768;48.578;11.574;2024-03-22T06:42:20;96970.78;;;7.64
48003;BMP280;33768;48.578;11.574;2024-03-22T06:45:25;96964.09;;;7.92
48003;BMP280;33768;48.578;11.574;2024-03-22T06:48:30;96957.19;;;8.34
48003;BMP280;33768;48.578;11.574;2024-03-22T06:51:34;96967.16;;;8.88
48003;BMP280;33768;48.578;11.574;2024-03-22T06:54:38;96957.50;;;9.32
48003;BMP280;33768;48.578;11.574;2024-03-22T06:57:45;96951.63;;;9.28
48003;BMP280;33768;48.578;11.574;2024-03-22T07:00:50;96951.44;;;9.15
48003;BMP280;33768;48.578;11.574;2024-03-22T07:03:54;96960.91;;;9.04
48003;BMP280;33768;48.578;11.574;2024-03-22T07:06:58;96959.94;;;8.96
48003;BMP280;33768;48.578;11.574;2024-03-22T07:10:03;96950.31;;;8.95
48003;BMP280;33768;48.578;11.574;2024-03-22T07:13:08;96947.34;;;8.93
48003;BMP280;33768;48.578;11.574;2024-03-22T07:16:12;96944.59;;;8.98
48003;BMP280;33768;48.578;11.574;2024-03-22T07:19:17;96940.09;;;9.06
48003;BMP280;33768;48.578;11.574;2024-03-22T07:22:21;96935.78;;;9.21
48003;BMP280;33768;48.578;11.574;2024-03-22T07:25:26;96927.00;;;9.39
48003;BMP280;33768;48.578;11.574;2024-03-22T07:28:31;96928.25;;;9.72
48003;BMP280;33768;48.578;11.574;2024-03-22T07:31:35;96920.53;;;10.11
48003;BMP280;33768;48.578;11.574;2024-03-22T07:34:39;96912.56;;;10.60
48003;BMP280;33768;48.578;11.574;2024-03-22T07:37:44;96916.97;;;10.87
48003;BMP280;33768;48.578;11.574;2024-03-22T07:40:48;96915.63;;;10.93
48003;BMP280;33768;48.578;11.574;2024-03-22T07:43:52;96913.06;;;11.00
48003;BMP280;33768;48.578;11.574;2024-03-22T07:46:57;96909.75;;;11.07
48003;BMP280;33768;48.578;11.574;2024-03-22T07:50:00;96920.69;;;11.07
48003;BMP280;33768;48.578;11.574;2024-03-22T07:53:05;96913.88;;;11.14
48003;BMP280;33768;48.578;11.574;2024-03-22T07:56:09;96916.09;;;11.33
48003;BMP280;33768;48.578;11.574;2024-03-22T07:59:13;96911.06;;;11.56
48003;BMP280;33768;48.578;11.574;2024-03-22T08:02:17;96918.28;;;11.71
48003;BMP280;33768;48.578;11.574;2024-03-22T08:05:22;96921.84;;;11.97
48003;BMP280;33768;48.578;11.574;2024-03-22T08:08:27;96912.41;;;12.11
48003;BMP280;33768;48.578;11.574;2024-03-22T08:11:39;96914.44;;;12.36
48003;BMP280;33768;48.578;11.574;2024-03-22T08:14:43;96908.13;;;12.67
48003;BMP280;33768;48.578;11.574;2024-03-22T08:17:48;96906.66;;;12.91
48003;BMP280;33768;48.578;11.574;2024-03-22T08:20:52;96913.94;;;13.02
48003;BMP280;33768;48.578;11.574;2024-03-22T08:23:56;96915.16;;;13.26
48003;BMP280;33768;48.578;11.574;2024-03-22T08:27:01;96906.97;;;13.46
48003;BMP280;33768;48.578;11.574;2024-03-22T08:30:06;96920.13;;;13.48
48003;BMP280;33768;48.578;11.574;2024-03-22T08:33:11;96906.63;;;13.50
48003;BMP280;33768;48.578;11.574;2024-03-22T08:36:15;96910.47;;;13.67
48003;BMP280;33768;48.578;11.574;2024-03-22T08:39:21;96916.09;;;13.82
48003;BMP280;33768;48.578;11.574;2024-03-22T08:42:27;96908.47;;;13.88
48003;BMP280;33768;48.578;11.574;2024-03-22T08:45:51;96894.97;;;14.10
48003;BMP280;33768;48.578;11.574;2024-03-22T08:48:56;96908.19;;;14.11
48003;BMP280;33768;48.578;11.574;2024-03-22T08:52:00;96896.31;;;14.16
48003;BMP280;33768;48.578;11.574;2024-03-22T08:55:06;96893.09;;;14.25
48003;BMP280;33768;48.578;11.574;2024-03-22T08:58:11;96890.91;;;14.31
48003;BMP280;33768;48.578;11.574;2024-03-22T09:01:15;96889.47;;;14.58
48003;BMP280;33768;48.578;11.574;2024-03-22T09:04:19;96878.72;;;14.67
48003;BMP280;33768;48.578;11.574;2024-03-22T09:07:25;96886.97;;;14.67
48003;BMP280;33768;48.578;11.574;2024-03-22T09:10:29;96881.34;;;14.80
48003;BMP280;33768;48.578;11.574;2024-03-22T09:13:34;96886.84;;;14.80
48003;BMP280;33768;48.578;11.574;2024-03-22T09:16:39;96882.53;;;14.99
48003;BMP280;33768;48.578;11.574;2024-03-22T09:19:45;96880.97;;;15.11
48003;BMP280;33768;48.578;11.574;2024-03-22T09:22:56;96873.50;;;15.19
48003;BMP280;33768;48.578;11.574;2024-03-22T09:26:01;96875.38;;;15.38
48003;BMP280;33768;48.578;11.574;2024-03-22T09:29:05;96871.19;;;15.37
48003;BMP280;33768;48.578;11.574;2024-03-22T09:32:11;96870.09;;;15.40
48003;BMP280;33768;48.578;11.574;2024-03-22T09:35:17;96858.34;;;15.55
48003;BMP280;33768;48.578;11.574;2024-03-22T09:38:21;96852.00;;;16.33
48003;BMP280;33768;48.578;11.574;2024-03-22T09:41:26;96848.06;;;17.90
48003;BMP280;33768;48.578;11.574;2024-03-22T09:44:32;96842.38;;;18.86
48003;BMP280;33768;48.578;11.574;2024-03-22T09:47:36;96831.00;;;19.16
48003;BMP280;33768;48.578;11.574;2024-03-22T09:50:41;96835.91;;;19.34
48003;BMP280;33768;48.578;11.574;2024-03-22T09:53:45;96833.19;;;19.96
48003;BMP280;33768;48.578;11.574;2024-03-22T09:56:52;96840.94;;;19.97
48003;BMP280;33768;48.578;11.574;2024-03-22T09:59:58;96828.06;;;19.92
48003;BMP280;33768;48.578;11.574;2024-03-22T10:03:03;96823.66;;;19.54
48003;BMP280;33768;48.578;11.574;2024-03-22T10:06:08;96827.97;;;19.74
48003;BMP280;33768;48.578;11.574;2024-03-22T10:09:12;96825.13;;;19.90
48003;BMP280;33768;48.578;11.574;2024-03-22T10:12:20;96834.16;;;19.81
48003;BMP280;33768;48.578;11.574;2024-03-22T10:15:24;96825.50;;;20.58
48003;BMP280;33768;48.578;11.574;2024-03-22T10:18:32;96819.28;;;21.71
48003;BMP280;33768;48.578;11.574;2024-03-22T10:21:37;96803.13;;;22.49
48003;BMP280;33768;48.578;11.574;2024-03-22T10:24:41;96790.16;;;23.15
48003;BMP280;33768;48.578;11.574;2024-03-22T10:27:45;96785.94;;;23.57
48003;BMP280;33768;48.578;11.574;2024-03-22T10:30:50;96783.72;;;23.45
48003;BMP280;33768;48.578;11.574;2024-03-22T10:33:55;96784.72;;;22.64
48003;BMP280;33768;48.578;11.574;2024-03-22T10:37:03;96776.19;;;22.30
48003;BMP280;33768;48.578;11.574;2024-03-22T10:40:09;96779.84;;;21.64
48003;BMP280;33768;48.578;11.574;2024-03-22T10:43:16;96771.59;;;21.35
48003;BMP280;33768;48.578;11.574;2024-03-22T10:46:20;96777.91;;;21.08
48003;BMP280;33768;48.578;11.574;2024-03-22T10:49:25;96767.56;;;20.90
48003;BMP280;33768;48.578;11.574;2024-03-22T10:52:54;96764.06;;;20.70
48003;BMP280;33768;48.578;11.574;2024-03-22T10:56:01;96769.19;;;20.74
48003;BMP280;33768;48.578;11.574;2024-03-22T10:59:08;96758.97;;;20.67
48003;BMP280;33768;48.578;11.574;2024-03-22T11:02:13;96752.78;;;20.22
48003;BMP280;33768;48.578;11.574;2024-03-22T11:05:17;96758.25;;;20.03
48003;BMP280;33768;48.578;11.574;2024-03-22T11:08:29;96751.84;;;19.91
48003;BMP280;33768;48.578;11.574;2024-03-22T11:11:35;96740.88;;;19.48
48003;BMP280;33768;48.578;11.574;2024-03-22T11:14:41;96737.19;;;19.11
48003;BMP280;33768;48.578;11.574;2024-03-22T11:17:45;96722.41;;;18.99
48003;BMP280;33768;48.578;11.574;2024-03-22T11:20:49;96724.34;;;18.89
48003;BMP280;33768;48.578;11.574;2024-03-22T11:23:53;96719.50;;;18.80
48003;BMP280;33768;48.578;11.574;2024-03-22T11:26:57;96711.78;;;19.05
48003;BMP280;33768;48.578;11.574;2024-03-22T11:30:03;96713.72;;;19.12
48003;BMP280;33768;48.578;11.574;2024-03-22T11:33:07;96693.22;;;19.14
48003;BMP280;33768;48.578;11.574;2024-03-22T11:36:13;96694.84;;;19.53
48003;BMP280;33768;48.578;11.574;2024-03-22T11:39:19;96686.00;;;19.64
48003;BMP280;33768;48.578;11.574;2024-03-22T11:42:23;96673.88;;;19.59
48003;BMP280;33768;48.578;11.574;2024-03-22T11:45:28;96671.94;;;19.52
48003;BMP280;33768;48.578;11.574;2024-03-22T11:48:41;96673.44;;;19.63
48003;BMP280;33768;48.578;11.574;2024-03-22T11:51:45;96652.41;;;20.05
48003;BMP280;33768;48.578;11.574;2024-03-22T11:54:52;96648.91;;;20.32
48003;BMP280;33768;48.578;11.574;2024-03-22T11:57:58;96650.09;;;20.57
48003;BMP280;33768;48.578;11.574;2024-03-22T12:01:02;96642.91;;;20.64
48003;BMP280;33768;48.578;11.574;2024-03-22T12:04:07;96639.06;;;20.97
48003;BMP280;33768;48.578;11.574;2024-03-22T12:07:17;96633.44;;;20.67
48003;BMP280;33768;48.578;11.574;2024-03-22T12:10:54;96615.06;;;21.01
48003;BMP280;33768;48.578;11.574;2024-03-22T12:14:42;96614.25;;;21.59
48003;BMP280;33768;48.578;11.574;2024-03-22T12:18:06;96597.31;;;22.17
48003;BMP280;33768;48.578;11.574;2024-03-22T12:21:10;96586.78;;;22.47
48003;BMP280;33768;48.578;11.574;2024-03-22T12:24:14;96583.84;;;22.66
48003;BMP280;33768;48.578;11.574;2024-03-22T12:27:18;96578.75;;;22.74
48003;BMP280;33768;48.578;11.574;2024-03-22T12:30:23;96566.88;;;22.19
48003;BMP280;33768;48.578;11.574;2024-03-22T12:33:27;96570.06;;;22.68
48003;BMP280;33768;48.578;11.574;2024-03-22T12:36:31;96571.22;;;22.65
48003;BMP280;33768;48.578;11.574;2024-03-22T12:39:35;96552.09;;;22.48
48003;BMP280;33768;48.578;11.574;2024-03-22T12:42:41;96561.44;;;22.21
48003;BMP280;33768;48.578;11.574;2024-03-22T12:45:45;96553.63;;;22.40
48003;BMP280;33768;48.578;11.574;2024-03-22T12:48:49;96551.72;;;22.86
48003;BMP280;33768;48.578;11.574;2024-03-22T12:51:55;96548.22;;;23.19
48003;BMP280;33768;48.578;11.574;2024-03-22T12:55:00;96538.34;;;23.41
48003;BMP280;33768;48.578;11.574;2024-03-22T12:58:04;96537.19;;;23.21
48003;BMP280;33768;48.578;11.574;2024-03-22T13:01:08;96531.88;;;23.02
48003;BMP280;33768;48.578;11.574;2024-03-22T13:04:14;96509.59;;;23.02
48003;BMP280;33768;48.578;11.574;2024-03-22T13:07:18;96516.22;;;22.63
48003;BMP280;33768;48.578;11.574;2024-03-22T13:10:23;96506.75;;;22.57
48003;BMP280;33768;48.578;11.574;2024-03-22T13:13:28;96500.75;;;22.60
48003;BMP280;33768;48.578;11.574;2024-03-22T13:16:32;96492.16;;;22.79
48003;BMP280;33768;48.578;11.574;2024-03-22T13:19:36;96494.94;;;22.79
48003;BMP280;33768;48.578;11.574;2024-03-22T13:22:40;96487.34;;;23.02
48003;BMP280;33768;48.578;11.574;2024-03-22T13:25:44;96481.97;;;22.72
48003;BMP280;33768;48.578;11.574;2024-03-22T13:28:48;96478.34;;;22.47
48003;BMP280;33768;48.578;11.574;2024-03-22T13:31:52;96467.66;;;22.32
48003;BMP280;33768;48.578;11.574;2024-03-22T13:34:57;96471.28;;;22.24
48003;BMP280;33768;48.578;11.574;2024-03-22T13:38:00;96459.22;;;22.30
48003;BMP280;33768;48.578;11.574;2024-03-22T13:41:05;96452.09;;;22.50
48003;BMP280;33768;48.578;11.574;2024-03-22T13:44:09;96448.25;;;22.44
48003;BMP280;33768;48.578;11.574;2024-03-22T13:47:14;96441.84;;;22.64
48003;BMP280;33768;48.578;11.574;2024-03-22T13:50:39;96438.69;;;22.35
48003;BMP280;33768;48.578;11.574;2024-03-22T13:53:46;96434.84;;;22.08
48003;BMP280;33768;48.578;11.574;2024-03-22T13:56:51;96423.78;;;21.76
48003;BMP280;33768;48.578;11.574;2024-03-22T13:59:55;96424.13;;;21.71
48003;BMP280;33768;48.578;11.574;2024-03-22T14:03:00;96411.00;;;21.83
48003;BMP280;33768;48.578;11.574;2024-03-22T14:06:04;96412.94;;;21.28
48003;BMP280;33768;48.578;11.574;2024-03-22T14:09:09;96413.66;;;21.07
48003;BMP280;33768;48.578;11.574;2024-03-22T14:12:14;96397.47;;;21.25
48003;BMP280;33768;48.578;11.574;2024-03-22T14:15:19;96401.50;;;21.33
48003;BMP280;33768;48.578;11.574;2024-03-22T14:18:23;96390.19;;;21.40
48003;BMP280;33768;48.578;11.574;2024-03-22T14:21:28;96394.03;;;21.35
48003;BMP280;33768;48.578;11.574;2024-03-22T14:24:32;96386.94;;;21.44
48003;BMP280;33768;48.578;11.574;2024-03-22T14:27:37;96375.59;;;21.40
48003;BMP280;33768;48.578;11.574;2024-03-22T14:30:41;96369.81;;;20.95
48003;BMP280;33768;48.578;11.574;2024-03-22T14:33:45;96358.91;;;20.87
48003;BMP280;33768;48.578;11.574;2024-03-22T14:36:50;96350.19;;;21.02
48003;BMP280;33768;48.578;11.574;2024-03-22T14:39:55;96365.03;;;21.06
48003;BMP280;33768;48.578;11.574;2024-03-22T14:42:59;96349.00;;;20.84
48003;BMP280;33768;48.578;11.574;2024-03-22T14:46:04;96351.75;;;20.64
48003;BMP280;33768;48.578;11.574;2024-03-22T14:49:09;96347.63;;;20.44
48003;BMP280;33768;48.578;11.574;2024-03-22T14:52:14;96332.78;;;20.39
48003;BMP280;33768;48.578;11.574;2024-03-22T14:55:20;96323.94;;;20.32
48003;BMP280;33768;48.578;11.574;2024-03-22T14:58:25;96324.28;;;20.47
48003;BMP280;33768;48.578;11.574;2024-03-22T15:01:34;96328.03;;;20.51
48003;BMP280;33768;48.578;11.574;2024-03-22T15:04:39;96314.47;;;20.25
48003;BMP280;33768;48.578;11.574;2024-03-22T15:07:43;96308.88;;;20.05
48003;BMP280;33768;48.578;11.574;2024-03-22T15:10:48;96307.53;;;20.15
48003;BMP280;33768;48.578;11.574;2024-03-22T15:13:53;96297.41;;;20.49
48003;BMP280;33768;48.578;11.574;2024-03-22T15:16:59;96296.53;;;20.56
48003;BMP280;33768;48.578;11.574;2024-03-22T15:20:06;96287.50;;;20.46
48003;BMP280;33768;48.578;11.574;2024-03-22T15:23:16;96290.91;;;20.15
48003;BMP280;33768;48.578;11.574;2024-03-22T15:26:25;96280.31;;;20.02
48003;BMP280;33768;48.578;11.574;2024-03-22T15:29:30;96277.38;;;19.79
48003;BMP280;33768;48.578;11.574;2024-03-22T15:32:35;96264.47;;;19.54
48003;BMP280;33768;48.578;11.574;2024-03-22T15:35:45;96261.41;;;19.50
48003;BMP280;33768;48.578;11.574;2024-03-22T15:43:11;96254.97;;;19.08
48003;BMP280;33768;48.578;11.574;2024-03-22T15:50:48;96250.19;;;18.71
48003;BMP280;33768;48.578;11.574;2024-03-22T15:54:00;96243.34;;;18.53
48003;BMP280;33768;48.578;11.574;2024-03-22T15:57:11;96235.91;;;18.47
48003;BMP280;33768;48.578;11.574;2024-03-22T16:00:19;96249.44;;;18.33
48003;BMP280;33768;48.578;11.574;2024-03-22T16:03:56;96239.56;;;18.30
48003;BMP280;33768;48.578;11.574;2024-03-22T16:19:25;96224.19;;;17.83
48003;BMP280;33768;48.578;11.574;2024-03-22T16:22:29;96218.66;;;17.83
48003;BMP280;33768;48.578;11.574;2024-03-22T16:25:37;96215.56;;;17.69
48003;BMP280;33768;48.578;11.574;2024-03-22T16:28:50;96215.38;;;17.58
48003;BMP280;33768;48.578;11.574;2024-03-22T16:31:54;96209.69;;;17.47
48003;BMP280;33768;48.578;11.574;2024-03-22T16:35:02;96200.63;;;17.37
48003;BMP280;33768;48.578;11.574;2024-03-22T16:38:16;96209.28;;;17.24
48003;BMP280;33768;48.578;11.574;2024-03-22T16:41:20;96207.44;;;17.10
48003;BMP280;33768;48.578;11.574;2024-03-22T16:44:24;96215.34;;;16.96
48003;BMP280;33768;48.578;11.574;2024-03-22T16:47:29;96210.75;;;16.82
48003;BMP280;33768;48.578;11.574;2024-03-22T16:50:33;96208.78;;;16.66
48003;BMP280;33768;48.578;11.574;2024-03-22T16:53:37;96199.97;;;16.51
48003;BMP280;33768;48.578;11.574;2024-03-22T16:56:42;96200.31;;;16.38
48003;BMP280;33768;48.578;11.574;2024-03-22T16:59:46;96188.31;;;16.26
48003;BMP280;33768;48.578;11.574;2024-03-22T17:02:50;96192.66;;;16.12
48003;BMP280;33768;48.578;11.574;2024-03-22T17:05:54;96187.63;;;16.01
48003;BMP280;33768;48.578;11.574;2024-03-22T17:08:58;96186.66;;;15.90
48003;BMP280;33768;48.578;11.574;2024-03-22T17:12:04;96194.66;;;15.78
48003;BMP280;33768;48.578;11.574;2024-03-22T17:15:09;96190.00;;;15.64
48003;BMP280;33768;48.578;11.574;2024-03-22T17:18:14;96189.31;;;15.39
48003;BMP280;33768;48.578;11.574;2024-03-22T17:21:18;96181.78;;;15.16
48003;BMP280;33768;48.578;11.574;2024-03-22T17:24:26;96185.38;;;14.94
48003;BMP280;33768;48.578;11.574;2024-03-22T17:27:31;96185.13;;;14.75
48003;BMP280;33768;48.578;11.574;2024-03-22T17:30:35;96178.44;;;14.62
48003;BMP280;33768;48.578;11.574;2024-03-22T17:33:40;96177.41;;;14.50
48003;BMP280;33768;48.578;11.574;2024-03-22T17:36:45;96174.91;;;14.37
48003;BMP280;33768;48.578;11.574;2024-03-22T17:39:49;96176.97;;;14.22
48003;BMP280;33768;48.578;11.574;2024-03-22T17:42:53;96181.22;;;14.08
48003;BMP280;33768;48.578;11.574;2024-03-22T17:45:58;96182.34;;;13.98
48003;BMP280;33768;48.578;11.574;2024-03-22T17:49:03;96180.31;;;13.91
48003;BMP280;33768;48.578;11.574;2024-03-22T17:52:07;96180.34;;;13.83
48003;BMP280;33768;48.578;11.574;2024-03-22T17:55:11;96179.78;;;13.77
48003;BMP280;33768;48.578;11.574;2024-03-22T17:58:15;96177.97;;;13.73
48003;BMP280;33768;48.578;11.574;2024-03-22T18:01:20;96180.56;;;13.63
48003;BMP280;33768;48.578;11.574;2024-03-22T18:04:24;96174.53;;;13.57
48003;BMP280;33768;48.578;11.574;2024-03-22T18:07:28;96167.59;;;13.49
48003;BMP280;33768;48.578;11.574;2024-03-22T18:10:32;96164.66;;;13.40
48003;BMP280;33768;48.578;11.574;2024-03-22T18:13:36;96164.13;;;13.26